Time;durP1;ratioP1;P1;durP2;ratioP2;P2;SDS_P1;SDS_P2;PMS_P1;PMS_P2;Temp;Humidity;BMP_temperature;BMP_pressure;BME280_temperature;BME280_humidity;BME280_pressure;Samples;Min_cycle;Max_cycle;Signal;HPM_P1;HPM_P2
2022/08/29 00:02:25;;;;;;;24.32;13.22;;;;;;;19.18;81.38;100572.92;1869627;77;20946;-87
2022/08/29 00:04:52;;;;;;;22.82;15.35;;;;;;;19.16;81.45;100570.08;1868910;77;20919;-90
2022/08/29 00:07:19;;;;;;;22.32;13.58;;;;;;;19.13;81.38;100573.05;1869171;77;21345;-89
2022/08/29 00:09:45;;;;;;;20.52;13.53;;;;;;;19.10;81.49;100575.52;1868383;76;20892;-91
2022/08/29 00:12:12;;;;;;;22.73;13.85;;;;;;;19.08;81.36;100577.98;1869167;77;22121;-91
2022/08/29 00:14:39;;;;;;;21.82;12.60;;;;;;;19.06;81.17;100586.09;1868972;77;20903;-91
2022/08/29 00:17:06;;;;;;;21.42;11.80;;;;;;;19.02;81.01;100584.71;1868600;76;20974;-91
2022/08/29 00:19:33;;;;;;;24.20;13.95;;;;;;;18.99;80.74;100580.53;1868853;77;20906;-90
2022/08/29 00:21:59;;;;;;;22.80;14.47;;;;;;;18.96;80.51;100578.15;1866686;77;20904;-91
2022/08/29 00:24:26;;;;;;;17.23;13.08;;;;;;;18.93;80.32;100578.95;1862282;77;21114;-89
2022/08/29 00:26:53;;;;;;;20.75;12.37;;;;;;;18.88;80.25;100574.08;1862129;77;20906;-89
2022/08/29 00:29:19;;;;;;;17.67;12.35;;;;;;;18.85;80.27;100579.67;1861947;77;20926;-90
2022/08/29 00:31:46;;;;;;;22.07;13.50;;;;;;;18.81;80.40;100580.48;1861792;77;20981;-89
2022/08/29 00:34:13;;;;;;;18.37;13.90;;;;;;;18.79;80.66;100579.78;1861519;77;20824;-90
2022/08/29 00:36:39;;;;;;;21.52;13.05;;;;;;;18.78;80.97;100576.77;1862124;77;21144;-90
2022/08/29 00:39:06;;;;;;;19.65;12.65;;;;;;;18.77;81.23;100589.72;1861903;77;20998;-90
2022/08/29 00:41:33;;;;;;;17.73;13.28;;;;;;;18.75;81.38;100589.49;1862152;77;20871;-90
2022/08/29 00:43:59;;;;;;;24.47;13.28;;;;;;;18.73;81.42;100586.97;1861887;77;20879;-90
2022/08/29 00:46:45;;;;;;;28.70;13.78;;;;;;;18.70;81.41;100585.95;1862054;77;20867;-88
2022/08/29 00:49:17;;;;;;;21.85;13.30;;;;;;;18.69;81.38;100588.73;1862341;77;21179;-89
2022/08/29 00:51:44;;;;;;;25.57;14.63;;;;;;;18.65;81.39;100589.51;1862075;77;20899;-89
2022/08/29 00:54:12;;;;;;;19.12;12.25;;;;;;;18.65;81.37;100589.51;1861815;77;20904;-90
2022/08/29 00:56:38;;;;;;;19.32;13.10;;;;;;;18.62;81.42;100588.48;1861853;77;20902;-90
2022/08/29 00:59:19;;;;;;;16.97;13.50;;;;;;;18.61;81.32;100589.48;1861969;77;20876;-90
2022/08/29 01:01:45;;;;;;;19.10;13.78;;;;;;;18.59;81.18;100588.28;1861780;77;21257;-91
2022/08/29 01:04:12;;;;;;;18.87;12.93;;;;;;;18.56;80.95;100587.73;1862190;77;20907;-89
2022/08/29 01:06:39;;;;;;;17.15;12.20;;;;;;;18.54;80.77;100595.00;1862063;77;20915;-89
2022/08/29 01:09:06;;;;;;;23.75;12.73;;;;;;;18.51;80.82;100593.47;1861926;77;21412;-88
2022/08/29 01:14:19;;;;;;;24.12;13.22;;;;;;;18.49;81.09;100591.95;1861618;77;21181;-88
2022/08/29 01:16:46;;;;;;;23.67;12.33;;;;;;;18.48;81.12;100593.77;1862437;77;20962;-89
2022/08/29 01:19:21;;;;;;;19.25;11.68;;;;;;;18.48;81.09;100584.98;1856960;77;21294;-88
2022/08/29 01:22:03;;;;;;;21.35;12.73;;;;;;;18.44;81.04;100585.24;1860934;76;20840;-88
2022/08/29 01:24:44;;;;;;;20.72;12.00;;;;;;;18.42;80.98;100585.05;1862077;77;21158;-89
2022/08/29 01:27:11;;;;;;;18.92;11.85;;;;;;;18.38;80.87;100580.50;1861905;76;21206;-88
2022/08/29 01:29:39;;;;;;;19.52;11.75;;;;;;;18.34;80.89;100580.94;1862315;77;20931;-88
2022/08/29 01:32:05;;;;;;;18.50;11.83;;;;;;;18.33;81.04;100580.60;1862236;77;20888;-88
2022/08/29 01:34:32;;;;;;;15.05;11.73;;;;;;;18.29;81.23;100570.75;1862339;77;20927;-88
2022/08/29 01:37:01;;;;;;;16.52;12.35;;;;;;;18.29;81.51;100577.88;1833931;77;20931;-87
2022/08/29 01:39:33;;;;;;;20.40;13.20;;;;;;;18.28;81.71;100582.86;1862181;76;21195;-89
2022/08/29 01:42:03;;;;;;;19.98;13.10;;;;;;;18.28;82.05;100576.22;1860996;77;20860;-88
2022/08/29 01:44:30;;;;;;;22.37;12.33;;;;;;;18.27;82.20;100578.02;1862091;75;20907;-90
2022/08/29 01:46:58;;;;;;;18.42;12.23;;;;;;;18.27;82.40;100582.00;1862081;77;20900;-90
2022/08/29 01:49:25;;;;;;;18.55;12.28;;;;;;;18.28;82.45;100586.84;1861690;75;20962;-89
2022/08/29 01:51:51;;;;;;;17.75;12.03;;;;;;;18.28;82.37;100588.17;1861864;75;21081;-90
2022/08/29 01:54:18;;;;;;;17.95;11.20;;;;;;;18.27;82.37;100585.98;1861950;75;21172;-87
2022/08/29 01:56:48;;;;;;;22.73;12.63;;;;;;;18.27;82.26;100592.62;1861646;76;20956;-86
2022/08/29 01:59:17;;;;;;;22.27;13.32;;;;;;;18.27;82.21;100593.11;1862152;76;20829;-86
2022/08/29 02:01:51;;;;;;;21.40;12.28;;;;;;;18.24;82.24;100586.27;1862110;76;20860;-86
2022/08/29 02:04:18;;;;;;;23.12;12.00;;;;;;;18.20;82.00;100589.69;1862075;77;21118;-88
2022/08/29 02:06:45;;;;;;;17.07;12.20;;;;;;;18.17;81.73;100595.30;1862125;77;20998;-85
2022/08/29 02:09:14;;;;;;;17.02;11.60;;;;;;;18.14;81.66;100602.23;1862065;76;20911;-87
2022/08/29 02:11:41;;;;;;;21.10;11.93;;;;;;;18.09;81.63;100596.48;1862137;76;20895;-86
2022/08/29 02:14:08;;;;;;;32.88;14.83;;;;;;;18.07;81.49;100594.95;1862256;77;20912;-87
2022/08/29 02:16:34;;;;;;;34.70;16.95;;;;;;;18.03;81.54;100594.42;1862410;75;21207;-86
2022/08/29 02:19:01;;;;;;;33.55;13.78;;;;;;;18.00;81.63;100592.86;1862197;77;20846;-86
2022/08/29 02:21:28;;;;;;;22.42;12.85;;;;;;;18.00;81.74;100594.19;1862071;77;20864;-87
2022/08/29 02:23:58;;;;;;;21.12;12.93;;;;;;;17.98;81.92;100596.64;1869329;76;20926;-88
2022/08/29 02:26:25;;;;;;;24.10;13.55;;;;;;;17.96;82.19;100596.80;1870403;76;20939;-91
2022/08/29 02:28:52;;;;;;;21.02;13.13;;;;;;;17.96;82.50;100598.59;1869703;76;21166;-90
2022/08/29 02:31:20;;;;;;;15.53;11.70;;;;;;;17.95;82.74;100600.91;1870490;76;20985;-87
2022/08/29 02:33:47;;;;;;;18.92;14.10;;;;;;;17.95;83.22;100601.73;1870330;76;20931;-90
2022/08/29 02:36:16;;;;;;;14.93;11.70;;;;;;;17.95;83.73;100603.56;1870305;76;20876;-90
2022/08/29 02:38:42;;;;;;;16.32;12.40;;;;;;;17.97;84.06;100606.91;1870074;76;20828;-89
2022/08/29 02:41:09;;;;;;;16.70;12.00;;;;;;;17.98;84.24;100610.73;1869869;76;21095;-92
2022/08/29 02:43:36;;;;;;;18.27;11.40;;;;;;;17.98;84.44;100604.10;1869779;76;20918;-90
2022/08/29 02:46:03;;;;;;;15.32;10.93;;;;;;;18.01;84.62;100615.78;1870222;76;20844;-93
2022/08/29 02:48:30;;;;;;;19.82;12.47;;;;;;;18.04;84.86;100612.50;1870305;77;20903;-88
2022/08/29 02:50:59;;;;;;;14.65;11.50;;;;;;;18.04;84.94;100615.98;1869736;77;20898;-90
2022/08/29 02:53:28;;;;;;;19.85;11.12;;;;;;;18.04;84.79;100619.97;1868011;77;21144;-92
2022/08/29 02:55:56;;;;;;;19.00;11.08;;;;;;;18.04;84.66;100622.62;1867540;77;21053;-90
2022/08/29 02:58:23;;;;;;;17.75;11.85;;;;;;;18.05;84.65;100632.73;1868042;77;20914;-90
2022/08/29 03:00:50;;;;;;;18.20;13.60;;;;;;;18.04;84.83;100642.52;1868154;77;20911;-88
2022/08/29 03:03:17;;;;;;;14.85;12.28;;;;;;;18.07;85.38;100640.91;1868710;77;21017;-86
2022/08/29 03:05:44;;;;;;;18.95;11.57;;;;;;;18.11;86.07;100643.63;1868186;77;21746;-90
2022/08/29 03:08:13;;;;;;;20.40;13.28;;;;;;;18.16;86.70;100644.07;1867213;76;21368;-91
2022/08/29 03:10:41;;;;;;;16.95;11.85;;;;;;;18.21;87.11;100644.97;1867644;77;20863;-91
2022/08/29 03:13:08;;;;;;;16.32;11.22;;;;;;;18.26;87.40;100648.03;1867572;76;20922;-90
2022/08/29 03:15:35;;;;;;;14.73;10.05;;;;;;;18.31;87.25;100651.59;1867261;77;20907;-91
2022/08/29 03:18:03;;;;;;;15.40;10.45;;;;;;;18.34;86.90;100649.97;1867491;77;21242;-91
2022/08/29 03:20:33;;;;;;;17.40;11.45;;;;;;;18.39;86.60;100649.07;1867274;77;20970;-90
2022/08/29 03:23:00;;;;;;;15.08;11.60;;;;;;;18.43;86.24;100655.28;1859898;77;20911;-90
2022/08/29 03:25:27;;;;;;;16.12;10.32;;;;;;;18.46;85.83;100657.30;1847896;77;20962;-89
2022/08/29 03:27:54;;;;;;;16.17;10.50;;;;;;;18.48;85.35;100654.02;1848154;77;20825;-91
2022/08/29 03:30:21;;;;;;;19.87;11.68;;;;;;;18.49;84.85;100649.88;1848817;77;21235;-90
2022/08/29 03:32:47;;;;;;;17.77;9.88;;;;;;;18.52;84.71;100658.91;1848447;77;20963;-90
2022/08/29 03:35:14;;;;;;;18.17;10.95;;;;;;;18.54;84.63;100660.06;1847856;77;20841;-90
2022/08/29 03:37:41;;;;;;;19.60;10.75;;;;;;;18.57;84.46;100659.30;1849254;77;20939;-90
2022/08/29 03:40:08;;;;;;;19.55;10.23;;;;;;;18.61;83.82;100657.21;1848146;77;20986;-90
2022/08/29 03:42:37;;;;;;;16.93;10.35;;;;;;;18.64;83.23;100664.38;1847994;77;21135;-91
2022/08/29 03:45:06;;;;;;;18.35;11.60;;;;;;;18.66;82.86;100658.94;1848180;77;20872;-90
2022/08/29 03:47:34;;;;;;;16.95;12.73;;;;;;;18.68;82.54;100666.28;1848161;77;20875;-90
2022/08/29 03:50:01;;;;;;;27.55;16.82;;;;;;;18.70;82.34;100664.78;1848200;77;20959;-90
2022/08/29 03:52:28;;;;;;;18.05;14.83;;;;;;;18.71;82.34;100658.50;1848358;77;20939;-89
2022/08/29 03:54:57;;;;;;;19.37;12.18;;;;;;;18.73;82.38;100659.20;1848139;77;21131;-91
2022/08/29 03:57:24;;;;;;;25.35;12.60;;;;;;;18.76;82.52;100666.87;1848147;77;21298;-90
2022/08/29 03:59:51;;;;;;;25.23;13.55;;;;;;;18.80;82.68;100673.61;1849671;77;20864;-90
2022/08/29 04:02:17;;;;;;;14.75;12.98;;;;;;;18.83;82.81;100670.65;1849147;77;20888;-91
2022/08/29 04:08:57;;;;;;;23.77;14.78;;;;;;;19.01;82.92;100669.44;1798411;79;22554;-90
2022/08/29 04:11:24;;;;;;;25.88;11.65;;;;;;;19.02;82.91;100671.09;1758835;80;21007;-90
2022/08/29 04:13:52;;;;;;;23.92;12.63;;;;;;;19.10;82.95;100675.66;1740139;81;21545;-91
2022/08/29 04:16:23;;;;;;;15.18;10.82;;;;;;;19.14;82.85;100677.05;1759172;80;21413;-91
2022/08/29 04:18:50;;;;;;;23.90;11.08;;;;;;;19.19;82.80;100672.16;1759334;80;20939;-90
2022/08/29 04:21:17;;;;;;;16.40;11.60;;;;;;;19.25;82.85;100679.05;1739912;81;20889;-89
2022/08/29 04:23:46;;;;;;;18.02;11.63;;;;;;;19.31;82.93;100668.80;1759109;80;20908;-91
2022/08/29 04:26:18;;;;;;;20.43;12.40;;;;;;;19.37;83.06;100669.55;1759184;80;21852;-90
2022/08/29 04:28:45;;;;;;;21.97;12.33;;;;;;;19.44;83.21;100678.60;1759099;80;20940;-89
2022/08/29 04:31:18;;;;;;;17.73;10.88;;;;;;;19.48;83.36;100675.16;1758829;80;20923;-91
2022/08/29 04:33:42;;;;;;;20.37;14.15;;;;;;;19.54;83.55;100675.41;1758741;80;20963;-90
2022/08/29 04:36:09;;;;;;;16.87;12.37;;;;;;;19.62;83.79;100671.48;1758966;80;20852;-91
2022/08/29 04:38:36;;;;;;;17.48;12.80;;;;;;;19.73;83.91;100679.78;1758990;80;21160;-90
2022/08/29 04:41:08;;;;;;;19.90;14.40;;;;;;;19.83;83.88;100675.72;1758922;81;21484;-90
2022/08/29 04:43:36;;;;;;;23.22;13.70;;;;;;;19.96;83.79;100679.34;1759526;81;20916;-91
2022/08/29 04:46:03;;;;;;;24.75;14.15;;;;;;;20.07;83.65;100685.77;1760485;81;20990;-90
2022/08/29 04:48:29;;;;;;;23.12;13.70;;;;;;;20.21;83.53;100689.72;1760333;81;20923;-89
2022/08/29 04:50:59;;;;;;;15.18;12.73;;;;;;;20.40;83.40;100690.06;1759321;80;21239;-89
2022/08/29 04:53:26;;;;;;;21.20;13.93;;;;;;;20.65;83.32;100693.77;1759725;81;20901;-88
2022/08/29 04:56:02;;;;;;;21.37;12.37;;;;;;;20.95;82.87;100697.80;1759588;80;20983;-88
2022/08/29 04:58:29;;;;;;;16.37;10.70;;;;;;;21.38;82.46;100697.84;1759501;81;21405;-91
2022/08/29 05:00:56;;;;;;;23.73;11.78;;;;;;;22.06;81.26;100703.06;1759331;80;20920;-90
2022/08/29 05:03:22;;;;;;;19.85;12.93;;;;;;;22.80;79.09;100692.89;1759421;81;22308;-90
2022/08/29 05:06:05;;;;;;;23.98;13.45;;;;;;;23.57;76.23;100693.16;1759379;80;20837;-91
2022/08/29 05:08:33;;;;;;;34.83;14.07;;;;;;;24.36;73.25;100699.67;1760040;80;20944;-89
2022/08/29 05:11:02;;;;;;;27.95;13.08;;;;;;;25.20;69.79;100702.25;1759608;81;20900;-92
2022/08/29 05:13:29;;;;;;;23.05;13.28;;;;;;;25.93;67.18;100699.13;1759262;80;20880;-89
2022/08/29 05:15:56;;;;;;;31.27;14.15;;;;;;;26.61;64.48;100696.02;1759350;81;21886;-90
2022/08/29 05:18:23;;;;;;;28.27;13.58;;;;;;;27.25;61.93;100690.44;1758776;80;20924;-91
2022/08/29 05:20:49;;;;;;;30.80;12.13;;;;;;;27.87;59.61;100698.56;1758635;80;20917;-90
2022/08/29 05:23:18;;;;;;;32.17;13.25;;;;;;;28.43;58.00;100702.24;1758492;81;20881;-90
2022/08/29 05:25:47;;;;;;;28.55;12.35;;;;;;;28.96;56.14;100700.56;1758880;81;21686;-89
2022/08/29 05:28:14;;;;;;;34.20;13.48;;;;;;;29.44;54.29;100705.64;1718206;81;21098;-90
2022/08/29 05:30:41;;;;;;;30.72;13.18;;;;;;;29.92;52.63;100713.30;1758675;81;21315;-90
2022/08/29 05:33:08;;;;;;;40.35;13.70;;;;;;;30.36;51.04;100715.09;1758743;81;20880;-91
2022/08/29 05:35:35;;;;;;;33.63;13.22;;;;;;;30.77;49.69;100711.00;1758881;81;20932;-89
2022/08/29 05:38:03;;;;;;;32.70;12.95;;;;;;;31.15;48.50;100709.18;1759190;80;21070;-93
2022/08/29 05:40:30;;;;;;;33.05;13.48;;;;;;;31.55;47.58;100711.40;1759040;80;21211;-91
2022/08/29 05:42:56;;;;;;;31.73;12.80;;;;;;;31.91;46.65;100715.10;1759150;81;20952;-92
2022/08/29 05:45:23;;;;;;;30.43;12.90;;;;;;;32.31;45.75;100711.27;1758840;80;21070;-89
2022/08/29 05:47:49;;;;;;;30.50;12.55;;;;;;;32.67;45.08;100714.04;1759045;81;21409;-92
2022/08/29 05:50:16;;;;;;;24.45;12.20;;;;;;;33.00;44.12;100712.06;1758773;80;20912;-90
2022/08/29 05:52:43;;;;;;;26.27;12.07;;;;;;;33.30;43.57;100707.00;1758967;81;21088;-93
2022/08/29 05:55:11;;;;;;;17.67;10.55;;;;;;;33.58;42.81;100703.48;1759315;81;20947;-92
2022/08/29 05:57:37;;;;;;;21.93;10.80;;;;;;;33.87;41.99;100710.30;1761044;81;20889;-89
2022/08/29 06:00:07;;;;;;;27.70;10.60;;;;;;;34.16;41.05;100708.38;1760426;80;20980;-92
2022/08/29 06:02:35;;;;;;;18.75;8.38;;;;;;;34.40;40.11;100709.05;1758436;81;21323;-89
2022/08/29 06:05:03;;;;;;;17.77;8.65;;;;;;;34.63;38.89;100712.14;1758914;81;21548;-90
2022/08/29 06:07:31;;;;;;;21.40;10.40;;;;;;;34.88;38.12;100715.75;1758679;80;21003;-92
2022/08/29 06:10:00;;;;;;;15.10;8.43;;;;;;;35.12;38.18;100710.08;1758856;81;20873;-92
2022/08/29 06:12:30;;;;;;;19.40;9.10;;;;;;;35.37;37.52;100704.13;1759060;80;21405;-89
2022/08/29 06:14:56;;;;;;;18.17;9.58;;;;;;;35.58;37.12;100706.56;1760098;81;20983;-89
2022/08/29 06:17:23;;;;;;;26.15;9.30;;;;;;;35.69;36.80;100703.70;1759975;81;21079;-90
2022/08/29 06:19:51;;;;;;;19.92;9.80;;;;;;;35.85;36.64;100706.59;1759279;81;20849;-90
2022/08/29 06:22:18;;;;;;;20.12;10.10;;;;;;;36.06;36.42;100714.41;1761020;78;20900;-90
2022/08/29 06:24:45;;;;;;;21.93;9.25;;;;;;;36.29;36.06;100710.55;1761548;78;20904;-93
2022/08/29 06:27:12;;;;;;;32.95;12.10;;;;;;;36.49;35.55;100712.06;1761655;78;20822;-93
2022/08/29 06:29:40;;;;;;;24.90;10.32;;;;;;;36.60;34.95;100718.45;1761589;78;21188;-91
2022/08/29 06:32:07;;;;;;;19.80;9.15;;;;;;;36.58;34.79;100719.23;1761110;78;21259;-91
2022/08/29 06:34:36;;;;;;;21.93;8.38;;;;;;;36.55;34.63;100717.55;1761120;78;20869;-92
2022/08/29 06:37:02;;;;;;;21.40;7.97;;;;;;;36.66;34.41;100723.39;1761033;78;21419;-91
2022/08/29 06:39:29;;;;;;;24.85;8.08;;;;;;;36.93;33.93;100719.16;1759180;80;20849;-93
2022/08/29 06:41:56;;;;;;;19.52;7.47;;;;;;;37.17;33.13;100724.23;1758903;81;21231;-92
2022/08/29 06:44:25;;;;;;;16.25;6.65;;;;;;;37.20;32.64;100730.02;1759244;81;20948;-90
2022/08/29 06:46:52;;;;;;;15.18;7.85;;;;;;;37.29;32.54;100735.80;1759884;81;20923;-90
2022/08/29 06:49:19;;;;;;;18.52;8.28;;;;;;;37.31;32.03;100733.06;1759464;81;20849;-91
2022/08/29 06:51:49;;;;;;;13.98;7.62;;;;;;;37.20;32.07;100739.58;1759205;81;20885;-93
2022/08/29 06:54:18;;;;;;;15.23;8.00;;;;;;;37.15;32.48;100742.27;1758779;81;21399;-92
2022/08/29 06:56:44;;;;;;;20.40;8.80;;;;;;;37.24;32.87;100736.59;1759020;80;20940;-91
2022/08/29 06:59:12;;;;;;;14.75;8.43;;;;;;;37.24;33.33;100737.97;1759079;81;20936;-91
2022/08/29 07:01:42;;;;;;;14.33;7.42;;;;;;;37.38;33.13;100738.84;1759786;81;20925;-93
2022/08/29 07:04:09;;;;;;;14.47;5.72;;;;;;;37.56;32.26;100738.92;1759732;81;20883;-91
2022/08/29 07:06:36;;;;;;;14.28;6.55;;;;;;;37.64;31.32;100740.59;1759812;81;21165;-92
2022/08/29 07:09:03;;;;;;;15.83;6.12;;;;;;;37.81;31.18;100740.88;1751013;81;20992;-92
2022/08/29 07:11:32;;;;;;;12.40;5.92;;;;;;;38.01;30.28;100740.90;1747204;81;20885;-91
2022/08/29 07:14:03;;;;;;;11.40;5.55;;;;;;;38.13;29.27;100740.12;1746561;81;21383;-93
2022/08/29 07:16:32;;;;;;;15.60;8.70;;;;;;;38.13;29.13;100738.77;1746772;81;20897;-94
2022/08/29 07:18:59;;;;;;;21.93;7.95;;;;;;;38.18;28.90;100737.94;1746173;81;22292;-95
2022/08/29 07:21:26;;;;;;;12.40;6.00;;;;;;;38.30;29.23;100739.84;1735858;82;20956;-93
2022/08/29 07:23:54;;;;;;;16.30;7.28;;;;;;;38.53;29.04;100741.77;1746220;81;20992;-93
2022/08/29 07:26:30;;;;;;;15.43;7.67;;;;;;;38.71;27.65;100732.13;1746083;81;20873;-91
2022/08/29 07:29:00;;;;;;;22.50;8.75;;;;;;;38.78;27.65;100739.54;1745198;81;20909;-93
2022/08/29 07:31:27;;;;;;;16.05;6.37;;;;;;;38.96;27.43;100737.59;1745938;81;21236;-92
2022/08/29 07:33:53;;;;;;;20.97;8.75;;;;;;;39.16;27.25;100739.99;1745670;81;21410;-93
2022/08/29 07:36:20;;;;;;;18.48;8.43;;;;;;;39.40;27.14;100740.20;1745984;82;20869;-92
2022/08/29 07:38:47;;;;;;;15.32;7.75;;;;;;;39.54;26.68;100746.69;1745559;81;20934;-92
2022/08/29 07:41:14;;;;;;;19.60;9.28;;;;;;;39.53;26.57;100748.34;1745534;81;21442;-91
2022/08/29 07:43:41;;;;;;;23.83;7.40;;;;;;;39.55;26.54;100751.06;1745543;80;21180;-92
2022/08/29 07:46:13;;;;;;;12.20;6.78;;;;;;;39.72;27.03;100745.77;1745484;81;21327;-90
2022/08/29 07:48:41;;;;;;;12.20;7.08;;;;;;;39.95;26.95;100741.51;1746699;81;20838;-90
2022/08/29 07:51:12;;;;;;;21.40;8.15;;;;;;;40.10;26.08;100740.02;1746032;81;20897;-92
2022/08/29 07:53:40;;;;;;;14.87;7.60;;;;;;;40.07;26.11;100739.79;1745980;81;21339;-92
2022/08/29 07:56:10;;;;;;;20.37;8.25;;;;;;;39.91;26.47;100742.65;1745970;81;21245;-90
2022/08/29 07:58:39;;;;;;;19.25;7.53;;;;;;;39.79;26.67;100751.20;1745385;82;20929;-91
2022/08/29 08:01:12;;;;;;;15.65;7.10;;;;;;;39.68;26.88;100752.37;1735920;82;20893;-91
2022/08/29 08:03:41;;;;;;;16.45;7.80;;;;;;;39.72;26.84;100752.07;1746276;81;20889;-91
2022/08/29 08:06:08;;;;;;;15.45;8.63;;;;;;;39.91;26.90;100751.42;1748058;81;21007;-91
2022/08/29 08:08:36;;;;;;;18.30;9.20;;;;;;;40.16;26.69;100749.05;1747979;78;21213;-90
2022/08/29 08:11:04;;;;;;;20.65;8.05;;;;;;;40.43;26.12;100740.88;1747881;79;20861;-92
2022/08/29 08:13:32;;;;;;;17.60;9.03;;;;;;;40.54;26.02;100751.47;1747626;79;21532;-94
2022/08/29 08:16:17;;;;;;;20.48;8.43;;;;;;;40.57;25.85;100747.32;1746559;81;20948;-91
2022/08/29 08:18:45;;;;;;;16.90;7.67;;;;;;;40.53;25.57;100747.63;1746699;81;20976;-92
2022/08/29 08:21:12;;;;;;;14.87;7.37;;;;;;;40.44;25.25;100746.63;1746339;81;21968;-94
2022/08/29 08:23:39;;;;;;;12.25;7.17;;;;;;;40.31;25.59;100753.08;1747496;81;20834;-92
2022/08/29 08:26:06;;;;;;;16.95;6.45;;;;;;;40.27;25.59;100753.94;1746785;81;20968;-94
2022/08/29 08:28:33;;;;;;;18.70;6.83;;;;;;;40.33;25.06;100755.52;1747177;81;20999;-91
2022/08/29 08:31:00;;;;;;;15.60;7.75;;;;;;;40.46;25.05;100754.84;1747161;81;20877;-92
2022/08/29 08:33:27;;;;;;;11.53;6.22;;;;;;;40.59;24.94;100751.41;1747364;81;21531;-94
2022/08/29 08:35:56;;;;;;;12.88;6.50;;;;;;;40.55;24.56;100754.47;1746865;81;20940;-93
2022/08/29 08:38:23;;;;;;;13.88;7.78;;;;;;;40.49;24.74;100757.56;1746976;81;20992;-93
2022/08/29 08:41:09;;;;;;;15.50;5.97;;;;;;;40.57;24.71;100755.57;1746784;81;20920;-89
2022/08/29 08:43:49;;;;;;;14.25;6.35;;;;;;;40.64;24.03;100753.29;1735255;81;20948;-92
2022/08/29 08:46:16;;;;;;;15.60;6.25;;;;;;;40.56;23.97;100754.76;1745142;81;21229;-90
2022/08/29 08:48:43;;;;;;;12.82;6.35;;;;;;;40.54;23.58;100751.47;1745880;81;21008;-91
2022/08/29 08:51:18;;;;;;;20.40;8.23;;;;;;;40.55;23.45;100757.22;1737041;81;21005;-88
2022/08/29 08:53:49;;;;;;;15.78;6.40;;;;;;;40.61;23.58;100752.51;1746976;81;20999;-90
2022/08/29 08:56:40;;;;;;;13.98;5.60;;;;;;;40.82;22.62;100747.62;1746708;81;20893;-92
2022/08/29 09:02:25;;;;;;;14.23;5.78;;;;;;;41.09;22.09;100749.81;1744749;79;22271;31
2022/08/29 09:05:27;;;;;;;;;;;;;;;41.21;21.98;100746.09;1713097;84;20950;-91
2022/08/29 09:08:11;;;;;;;10.13;6.30;;;;;;;41.34;21.73;100749.25;1711586;84;20126;-91
2022/08/29 09:11:02;;;;;;;13.50;5.37;;;;;;;41.46;21.45;100751.56;1711272;84;20923;-90
2022/08/29 09:13:53;;;;;;;15.60;4.87;;;;;;;41.56;21.28;100751.45;1711085;83;22003;-93
2022/08/29 09:16:35;;;;;;;10.15;4.55;;;;;;;41.75;21.35;100747.31;1710971;83;20911;-92
2022/08/29 09:19:05;;;;;;;12.60;6.00;;;;;;;41.96;20.86;100739.56;1711090;84;21443;-93
2022/08/29 09:21:48;;;;;;;12.85;5.83;;;;;;;42.15;20.98;100738.16;1710919;82;20954;-93
2022/08/29 09:24:20;;;;;;;11.00;4.75;;;;;;;42.26;20.31;100736.86;1712213;82;21239;-92
2022/08/29 09:26:47;;;;;;;9.45;4.42;;;;;;;42.21;20.01;100737.77;1713079;84;21313;-92
2022/08/29 09:29:13;;;;;;;11.93;5.12;;;;;;;42.20;19.90;100736.69;1711724;83;20860;-93
2022/08/29 09:31:40;;;;;;;12.07;7.22;;;;;;;42.24;20.25;100726.13;1711248;84;20851;-92
2022/08/29 09:34:10;;;;;;;19.25;11.38;;;;;;;42.22;20.13;100733.06;1710720;84;20927;-91
2022/08/29 09:36:49;;;;;;;18.83;6.17;;;;;;;42.26;19.91;100730.53;1711335;84;20923;-91
2022/08/29 09:39:24;;;;;;;11.08;4.40;;;;;;;42.21;19.97;100734.20;1710667;83;21144;-92
2022/08/29 09:42:01;;;;;;;12.55;4.05;;;;;;;42.00;19.79;100718.02;1710543;84;20945;-92
2022/08/29 09:44:33;;;;;;;10.65;4.37;;;;;;;41.86;19.92;100724.56;1710651;82;20982;-89
2022/08/29 09:47:11;;;;;;;;;;;;;;;41.91;20.38;100727.22;1713284;84;20928;-92
2022/08/29 09:49:40;;;;;;;7.17;3.47;;;;;;;42.05;20.10;100722.63;1711355;84;20398;-90
2022/08/29 09:52:16;;;;;;;11.28;5.60;;;;;;;42.28;20.17;100721.41;1711808;84;21334;-91
2022/08/29 09:54:43;;;;;;;15.80;7.28;;;;;;;42.34;20.07;100724.34;1711295;84;20895;-92
2022/08/29 09:57:23;;;;;;;14.28;5.53;;;;;;;42.41;19.92;100717.32;1712386;84;20899;-89
2022/08/29 10:00:11;;;;;;;7.15;3.90;;;;;;;42.49;19.88;100723.25;1681494;84;20923;-90
2022/08/29 10:02:48;;;;;;;10.03;3.80;;;;;;;42.42;19.73;100722.27;1713253;82;20864;-91
2022/08/29 10:05:40;;;;;;;7.03;4.12;;;;;;;42.32;20.26;100718.30;1678213;84;21234;-91
2022/08/29 10:08:25;;;;;;;11.38;5.45;;;;;;;42.33;19.87;100714.41;1707381;83;20974;-90
2022/08/29 10:10:56;;;;;;;13.70;7.15;;;;;;;42.23;20.13;100710.72;1706893;84;20899;-93
2022/08/29 10:13:38;;;;;;;7.90;4.22;;;;;;;42.04;20.14;100711.33;1676853;85;20872;-92
2022/08/29 10:16:28;;;;;;;57.80;52.03;;;;;;;41.99;20.09;100702.59;1706037;84;20986;-92
2022/08/29 10:22:09;;;;;;;10.32;4.42;;;;;;;41.82;20.50;100700.91;1726072;79;21437;-90
2022/08/29 10:24:53;;;;;;;13.85;5.53;;;;;;;41.58;20.26;100699.09;1721676;83;20994;-91
2022/08/29 10:27:51;;;;;;;14.70;7.47;;;;;;;41.59;20.89;100705.41;1699850;84;21018;-92
2022/08/29 10:30:22;;;;;;;8.45;4.25;;;;;;;41.61;20.14;100703.18;1666665;86;21033;-92
2022/08/29 10:33:12;;;;;;;16.57;11.73;;;;;;;41.55;20.49;100702.39;1686074;85;21222;-92
2022/08/29 10:36:14;;;;;;;8.93;4.03;;;;;;;41.37;20.50;100703.23;1688689;83;21236;-93
2022/08/29 10:39:14;;;;;;;11.65;3.87;;;;;;;41.04;20.72;100693.45;1716917;83;21535;-91
2022/08/29 10:42:24;;;;;;;9.85;3.90;;;;;;;40.51;21.32;100695.70;1686469;84;21403;-94
2022/08/29 10:45:29;;;;;;;6.85;3.75;;;;;;;39.98;21.86;100696.44;1680176;84;20940;-91
2022/08/29 10:48:17;;;;;;;11.57;4.90;;;;;;;39.68;22.18;100698.02;1716871;83;21144;-92
2022/08/29 10:51:06;;;;;;;11.97;3.92;;;;;;;39.59;22.33;100702.73;1685411;85;21194;-93
2022/08/29 10:53:41;;;;;;;5.60;3.52;;;;;;;39.47;22.37;100700.90;1716762;83;20943;-90
2022/08/29 10:56:22;;;;;;;14.83;3.52;;;;;;;39.49;22.32;100700.06;1686615;85;20963;-91
2022/08/29 10:59:12;;;;;;;9.03;3.95;;;;;;;39.59;22.17;100696.42;1718103;83;20900;-90
2022/08/29 11:01:56;;;;;;;8.33;3.15;;;;;;;39.55;21.56;100687.11;1719349;82;21164;-91
2022/08/29 11:04:32;;;;;;;11.15;3.55;;;;;;;39.63;21.61;100691.19;1718925;82;21061;-91
2022/08/29 11:07:07;;;;;;;11.60;4.10;;;;;;;39.54;21.90;100697.28;1710864;82;20908;-90
2022/08/29 11:09:53;;;;;;;10.93;3.72;;;;;;;39.50;21.61;100687.16;1744483;82;20930;-89
2022/08/29 11:12:43;;;;;;;7.10;3.87;;;;;;;39.57;21.85;100688.46;1762777;81;20889;-91
2022/08/29 11:15:37;;;;;;;11.40;3.60;;;;;;;39.75;21.83;100684.21;1731434;81;21272;-92
2022/08/29 11:18:12;;;;;;;14.53;5.97;;;;;;;39.96;21.59;100679.98;1744001;82;21461;-90
2022/08/29 11:20:47;;;;;;;14.58;4.15;;;;;;;40.13;21.64;100671.30;1760584;81;20893;-90
2022/08/29 11:23:34;;;;;;;9.00;3.10;;;;;;;40.27;21.61;100670.13;1761936;81;20988;-91
2022/08/29 11:26:08;;;;;;;14.20;4.65;;;;;;;40.37;20.88;100669.44;1762908;81;21000;-91
2022/08/29 11:28:58;;;;;;;18.62;5.25;;;;;;;40.26;20.88;100670.63;1762031;81;21080;-91
2022/08/29 11:31:59;;;;;;;71.15;64.87;;;;;;;40.24;21.07;100670.65;1762655;81;20937;-91
2022/08/29 11:34:41;;;;;;;14.95;6.53;;;;;;;40.26;21.41;100671.19;1762524;81;21055;-91
2022/08/29 11:37:42;;;;;;;11.05;4.70;;;;;;;40.40;21.77;100674.94;1756293;81;20878;-91
2022/08/29 11:40:30;;;;;;;10.68;3.55;;;;;;;40.42;21.41;100673.25;1751370;82;20850;-90
2022/08/29 11:43:00;;;;;;;14.07;3.70;;;;;;;40.31;21.67;100663.75;1751860;82;21174;-89
2022/08/29 11:45:31;;;;;;;17.70;9.60;;;;;;;40.23;20.92;100658.84;1750934;81;21423;-90
2022/08/29 11:48:03;;;;;;;12.00;6.10;;;;;;;40.15;20.67;100657.53;1750993;82;20928;-91